sensor_id;sensor_type;location;lat;lon;timestamp;P1;durP1;ratioP1;P2;durP2;ratioP2
63714;SDS011;49858;48.956;9.076;2023-12-20T00:01:20;6.93;;;3.50;;
63714;SDS011;49858;48.956;9.076;2023-12-20T00:03:50;5.30;;;3.47;;
63714;SDS011;49858;48.956;9.076;2023-12-20T00:06:17;7.43;;;3.85;;
63714;SDS011;49858;48.956;9.076;2023-12-20T00:08:45;5.80;;;3.63;;
63714;SDS011;49858;48.956;9.076;2023-12-20T00:11:14;4.70;;;3.55;;
63714;SDS011;49858;48.956;9.076;2023-12-20T00:13:42;9.25;;;5.05;;
63714;SDS011;49858;48.956;9.076;2023-12-20T00:16:12;9.48;;;6.22;;
63714;SDS011;49858;48.956;9.076;2023-12-20T00:18:40;12.88;;;7.07;;
63714;SDS011;49858;48.956;9.076;2023-12-20T00:21:08;12.98;;;6.88;;
63714;SDS011;49858;48.956;9.076;2023-12-20T00:23:36;9.25;;;6.57;;
63714;SDS011;49858;48.956;9.076;2023-12-20T00:26:04;11.98;;;6.50;;
63714;SDS011;49858;48.956;9.076;2023-12-20T00:28:31;19.48;;;7.38;;
63714;SDS011;49858;48.956;9.076;2023-12-20T00:30:59;15.25;;;8.05;;
63714;SDS011;49858;48.956;9.076;2023-12-20T00:33:28;12.07;;;7.65;;
63714;SDS011;49858;48.956;9.076;2023-12-20T00:35:56;13.13;;;7.15;;
63714;SDS011;49858;48.956;9.076;2023-12-20T00:38:24;15.35;;;6.95;;
63714;SDS011;49858;48.956;9.076;2023-12-20T00:40:51;12.05;;;6.35;;
63714;SDS011;49858;48.956;9.076;2023-12-20T00:43:19;14.45;;;7.18;;
63714;SDS011;49858;48.956;9.076;2023-12-20T00:45:48;13.75;;;8.35;;
63714;SDS011;49858;48.956;9.076;2023-12-20T00:48:15;10.65;;;6.75;;
63714;SDS011;49858;48.956;9.076;2023-12-20T00:50:45;13.88;;;6.97;;
63714;SDS011;49858;48.956;9.076;2023-12-20T00:53:13;10.43;;;6.68;;
63714;SDS011;49858;48.956;9.076;2023-12-20T00:55:40;12.68;;;7.93;;
63714;SDS011;49858;48.956;9.076;2023-12-20T00:58:10;14.80;;;7.88;;
63714;SDS011;49858;48.956;9.076;2023-12-20T01:00:38;14.73;;;8.82;;
63714;SDS011;49858;48.956;9.076;2023-12-20T01:03:10;11.48;;;7.07;;
63714;SDS011;49858;48.956;9.076;2023-12-20T01:05:38;10.18;;;6.25;;
63714;SDS011;49858;48.956;9.076;2023-12-20T01:08:07;13.80;;;7.07;;
63714;SDS011;49858;48.956;9.076;2023-12-20T01:10:35;14.23;;;4.80;;
63714;SDS011;49858;48.956;9.076;2023-12-20T01:13:03;12.05;;;6.38;;
63714;SDS011;49858;48.956;9.076;2023-12-20T01:15:31;11.07;;;6.60;;
63714;SDS011;49858;48.956;9.076;2023-12-20T01:17:59;15.23;;;7.15;;
63714;SDS011;49858;48.956;9.076;2023-12-20T01:20:26;11.25;;;6.93;;
63714;SDS011;49858;48.956;9.076;2023-12-20T01:22:54;16.55;;;8.60;;
63714;SDS011;49858;48.956;9.076;2023-12-20T01:25:23;15.27;;;7.88;;
63714;SDS011;49858;48.956;9.076;2023-12-20T01:27:51;13.93;;;6.78;;
63714;SDS011;49858;48.956;9.076;2023-12-20T01:30:19;11.13;;;5.20;;
63714;SDS011;49858;48.956;9.076;2023-12-20T01:32:47;10.40;;;5.28;;
63714;SDS011;49858;48.956;9.076;2023-12-20T01:35:15;7.25;;;3.58;;
63714;SDS011;49858;48.956;9.076;2023-12-20T01:37:43;6.70;;;3.53;;
63714;SDS011;49858;48.956;9.076;2023-12-20T01:40:11;3.42;;;2.30;;
63714;SDS011;49858;48.956;9.076;2023-12-20T01:42:41;4.47;;;2.72;;
63714;SDS011;49858;48.956;9.076;2023-12-20T01:45:09;5.22;;;2.10;;
63714;SDS011;49858;48.956;9.076;2023-12-20T01:47:37;7.72;;;3.50;;
63714;SDS011;49858;48.956;9.076;2023-12-20T01:50:06;3.13;;;2.33;;
63714;SDS011;49858;48.956;9.076;2023-12-20T01:52:35;3.10;;;2.42;;
63714;SDS011;49858;48.956;9.076;2023-12-20T01:55:04;1.67;;;1.40;;
63714;SDS011;49858;48.956;9.076;2023-12-20T01:57:41;4.00;;;2.38;;
63714;SDS011;49858;48.956;9.076;2023-12-20T02:00:11;4.22;;;2.67;;
63714;SDS011;49858;48.956;9.076;2023-12-20T02:02:40;3.42;;;2.45;;
63714;SDS011;49858;48.956;9.076;2023-12-20T02:05:09;4.05;;;3.10;;
63714;SDS011;49858;48.956;9.076;2023-12-20T02:07:37;3.45;;;2.30;;
63714;SDS011;49858;48.956;9.076;2023-12-20T02:10:05;4.55;;;2.15;;
63714;SDS011;49858;48.956;9.076;2023-12-20T02:12:34;3.53;;;1.67;;
63714;SDS011;49858;48.956;9.076;2023-12-20T02:15:03;4.35;;;2.53;;
63714;SDS011;49858;48.956;9.076;2023-12-20T02:17:32;4.63;;;2.63;;
63714;SDS011;49858;48.956;9.076;2023-12-20T02:20:01;2.30;;;1.70;;
63714;SDS011;49858;48.956;9.076;2023-12-20T02:22:30;2.22;;;1.38;;
63714;SDS011;49858;48.956;9.076;2023-12-20T02:24:58;2.28;;;1.40;;
63714;SDS011;49858;48.956;9.076;2023-12-20T02:27:26;3.83;;;1.48;;
63714;SDS011;49858;48.956;9.076;2023-12-20T02:29:55;2.40;;;1.60;;
63714;SDS011;49858;48.956;9.076;2023-12-20T02:32:24;2.92;;;1.33;;
63714;SDS011;49858;48.956;9.076;2023-12-20T02:34:54;4.85;;;1.60;;
63714;SDS011;49858;48.956;9.076;2023-12-20T02:37:23;2.08;;;1.20;;
63714;SDS011;49858;48.956;9.076;2023-12-20T02:39:52;1.65;;;1.25;;
63714;SDS011;49858;48.956;9.076;2023-12-20T02:42:20;1.55;;;1.20;;
63714;SDS011;49858;48.956;9.076;2023-12-20T02:44:48;2.33;;;1.58;;
63714;SDS011;49858;48.956;9.076;2023-12-20T02:47:15;1.65;;;1.20;;
63714;SDS011;49858;48.956;9.076;2023-12-20T02:49:42;4.57;;;1.13;;
63714;SDS011;49858;48.956;9.076;2023-12-20T02:52:10;2.17;;;1.45;;
63714;SDS011;49858;48.956;9.076;2023-12-20T02:54:38;0.73;;;0.70;;
63714;SDS011;49858;48.956;9.076;2023-12-20T02:57:08;2.58;;;1.38;;
63714;SDS011;49858;48.956;9.076;2023-12-20T02:59:36;3.88;;;1.63;;
63714;SDS011;49858;48.956;9.076;2023-12-20T03:02:03;2.40;;;1.33;;
63714;SDS011;49858;48.956;9.076;2023-12-20T03:04:31;2.05;;;1.20;;
63714;SDS011;49858;48.956;9.076;2023-12-20T03:06:59;1.15;;;0.82;;
63714;SDS011;49858;48.956;9.076;2023-12-20T03:09:27;2.45;;;1.27;;
63714;SDS011;49858;48.956;9.076;2023-12-20T03:12:04;1.60;;;1.20;;
63714;SDS011;49858;48.956;9.076;2023-12-20T03:14:33;1.95;;;1.42;;
63714;SDS011;49858;48.956;9.076;2023-12-20T03:17:01;3.28;;;1.33;;
63714;SDS011;49858;48.956;9.076;2023-12-20T03:19:29;0.82;;;0.82;;
63714;SDS011;49858;48.956;9.076;2023-12-20T03:21:56;1.25;;;0.77;;
63714;SDS011;49858;48.956;9.076;2023-12-20T03:24:27;1.38;;;1.17;;
63714;SDS011;49858;48.956;9.076;2023-12-20T03:26:55;1.20;;;1.00;;
63714;SDS011;49858;48.956;9.076;2023-12-20T03:29:23;0.95;;;0.75;;
63714;SDS011;49858;48.956;9.076;2023-12-20T03:31:52;1.20;;;1.10;;
63714;SDS011;49858;48.956;9.076;2023-12-20T03:34:20;0.88;;;0.68;;
63714;SDS011;49858;48.956;9.076;2023-12-20T03:36:51;1.52;;;1.20;;
63714;SDS011;49858;48.956;9.076;2023-12-20T03:39:18;1.60;;;1.15;;
63714;SDS011;49858;48.956;9.076;2023-12-20T03:41:46;1.52;;;1.00;;
63714;SDS011;49858;48.956;9.076;2023-12-20T03:44:14;2.60;;;1.20;;
63714;SDS011;49858;48.956;9.076;2023-12-20T03:46:42;0.80;;;0.73;;
63714;SDS011;49858;48.956;9.076;2023-12-20T03:49:13;1.80;;;1.10;;
63714;SDS011;49858;48.956;9.076;2023-12-20T03:51:41;1.02;;;0.75;;
63714;SDS011;49858;48.956;9.076;2023-12-20T03:54:09;1.27;;;1.00;;
63714;SDS011;49858;48.956;9.076;2023-12-20T03:56:37;1.38;;;0.95;;
63714;SDS011;49858;48.956;9.076;2023-12-20T03:59:05;1.70;;;0.80;;
63714;SDS011;49858;48.956;9.076;2023-12-20T04:01:33;1.40;;;0.82;;
63714;SDS011;49858;48.956;9.076;2023-12-20T04:04:00;0.90;;;0.80;;
63714;SDS011;49858;48.956;9.076;2023-12-20T04:06:30;2.45;;;1.40;;
63714;SDS011;49858;48.956;9.076;2023-12-20T04:08:58;1.33;;;0.82;;
63714;SDS011;49858;48.956;9.076;2023-12-20T04:11:25;1.10;;;0.90;;
63714;SDS011;49858;48.956;9.076;2023-12-20T04:13:53;1.75;;;1.30;;
63714;SDS011;49858;48.956;9.076;2023-12-20T04:16:21;1.42;;;1.08;;
63714;SDS011;49858;48.956;9.076;2023-12-20T04:18:49;2.00;;;1.30;;
63714;SDS011;49858;48.956;9.076;2023-12-20T04:21:17;0.68;;;0.60;;
63714;SDS011;49858;48.956;9.076;2023-12-20T04:23:46;2.15;;;1.20;;
63714;SDS011;49858;48.956;9.076;2023-12-20T04:26:14;1.17;;;1.00;;
63714;SDS011;49858;48.956;9.076;2023-12-20T04:28:42;2.88;;;1.45;;
63714;SDS011;49858;48.956;9.076;2023-12-20T04:31:12;0.70;;;0.70;;
63714;SDS011;49858;48.956;9.076;2023-12-20T04:33:40;1.63;;;1.05;;
63714;SDS011;49858;48.956;9.076;2023-12-20T04:36:08;1.75;;;1.02;;
63714;SDS011;49858;48.956;9.076;2023-12-20T04:38:36;1.20;;;1.00;;
63714;SDS011;49858;48.956;9.076;2023-12-20T04:41:05;1.70;;;1.13;;
63714;SDS011;49858;48.956;9.076;2023-12-20T04:43:33;1.70;;;1.17;;
63714;SDS011;49858;48.956;9.076;2023-12-20T04:46:01;1.60;;;1.20;;
63714;SDS011;49858;48.956;9.076;2023-12-20T04:48:29;1.60;;;1.15;;
63714;SDS011;49858;48.956;9.076;2023-12-20T04:50:56;2.50;;;1.35;;
63714;SDS011;49858;48.956;9.076;2023-12-20T04:53:24;2.15;;;1.23;;
63714;SDS011;49858;48.956;9.076;2023-12-20T04:55:52;4.22;;;2.10;;
63714;SDS011;49858;48.956;9.076;2023-12-20T04:58:21;6.22;;;2.10;;
63714;SDS011;49858;48.956;9.076;2023-12-20T05:00:49;3.38;;;1.88;;
63714;SDS011;49858;48.956;9.076;2023-12-20T05:03:17;3.25;;;2.00;;
63714;SDS011;49858;48.956;9.076;2023-12-20T05:05:45;2.42;;;1.67;;
63714;SDS011;49858;48.956;9.076;2023-12-20T05:08:13;3.55;;;2.08;;
63714;SDS011;49858;48.956;9.076;2023-12-20T05:10:41;4.40;;;2.03;;
63714;SDS011;49858;48.956;9.076;2023-12-20T05:13:08;3.03;;;1.55;;
63714;SDS011;49858;48.956;9.076;2023-12-20T05:15:38;2.72;;;1.98;;
63714;SDS011;49858;48.956;9.076;2023-12-20T05:18:06;3.80;;;2.67;;
63714;SDS011;49858;48.956;9.076;2023-12-20T05:20:34;3.05;;;1.90;;
63714;SDS011;49858;48.956;9.076;2023-12-20T05:23:02;4.68;;;3.35;;
63714;SDS011;49858;48.956;9.076;2023-12-20T05:25:30;5.72;;;3.17;;
63714;SDS011;49858;48.956;9.076;2023-12-20T05:27:58;4.88;;;1.98;;
63714;SDS011;49858;48.956;9.076;2023-12-20T05:30:26;3.45;;;2.60;;
63714;SDS011;49858;48.956;9.076;2023-12-20T05:32:55;2.63;;;1.88;;
63714;SDS011;49858;48.956;9.076;2023-12-20T05:35:23;7.75;;;3.78;;
63714;SDS011;49858;48.956;9.076;2023-12-20T05:37:51;5.80;;;3.20;;
63714;SDS011;49858;48.956;9.076;2023-12-20T05:40:19;2.55;;;1.80;;
63714;SDS011;49858;48.956;9.076;2023-12-20T05:42:47;4.50;;;2.67;;
63714;SDS011;49858;48.956;9.076;2023-12-20T05:45:15;4.35;;;2.90;;
63714;SDS011;49858;48.956;9.076;2023-12-20T05:47:43;3.92;;;2.80;;
63714;SDS011;49858;48.956;9.076;2023-12-20T05:50:12;5.15;;;2.72;;
63714;SDS011;49858;48.956;9.076;2023-12-20T05:52:40;3.88;;;2.10;;
63714;SDS011;49858;48.956;9.076;2023-12-20T05:55:07;7.82;;;3.55;;
63714;SDS011;49858;48.956;9.076;2023-12-20T05:57:35;4.50;;;2.22;;
63714;SDS011;49858;48.956;9.076;2023-12-20T06:00:03;6.78;;;3.53;;
63714;SDS011;49858;48.956;9.076;2023-12-20T06:02:37;7.63;;;4.25;;
63714;SDS011;49858;48.956;9.076;2023-12-20T06:05:05;3.88;;;2.55;;
63714;SDS011;49858;48.956;9.076;2023-12-20T06:07:35;2.60;;;1.48;;
63714;SDS011;49858;48.956;9.076;2023-12-20T06:10:03;3.63;;;2.30;;
63714;SDS011;49858;48.956;9.076;2023-12-20T06:12:32;6.18;;;4.25;;
63714;SDS011;49858;48.956;9.076;2023-12-20T06:15:02;6.47;;;3.95;;
63714;SDS011;49858;48.956;9.076;2023-12-20T06:17:32;8.32;;;3.30;;
63714;SDS011;49858;48.956;9.076;2023-12-20T06:20:01;6.20;;;4.05;;
63714;SDS011;49858;48.956;9.076;2023-12-20T06:22:35;5.03;;;3.30;;
63714;SDS011;49858;48.956;9.076;2023-12-20T06:25:04;6.93;;;4.70;;
63714;SDS011;49858;48.956;9.076;2023-12-20T06:27:33;8.75;;;5.40;;
63714;SDS011;49858;48.956;9.076;2023-12-20T06:30:01;8.70;;;5.10;;
63714;SDS011;49858;48.956;9.076;2023-12-20T06:32:29;5.43;;;3.03;;
63714;SDS011;49858;48.956;9.076;2023-12-20T06:34:57;5.78;;;4.10;;
63714;SDS011;49858;48.956;9.076;2023-12-20T06:37:25;7.57;;;3.88;;
63714;SDS011;49858;48.956;9.076;2023-12-20T06:39:54;3.08;;;2.45;;
63714;SDS011;49858;48.956;9.076;2023-12-20T06:42:23;7.75;;;4.30;;
63714;SDS011;49858;48.956;9.076;2023-12-20T06:44:51;7.00;;;4.30;;
63714;SDS011;49858;48.956;9.076;2023-12-20T06:47:18;5.05;;;2.75;;
63714;SDS011;49858;48.956;9.076;2023-12-20T06:49:46;8.98;;;5.22;;
63714;SDS011;49858;48.956;9.076;2023-12-20T06:52:14;9.50;;;5.25;;
63714;SDS011;49858;48.956;9.076;2023-12-20T06:54:42;7.72;;;5.68;;
63714;SDS011;49858;48.956;9.076;2023-12-20T06:57:11;5.78;;;2.95;;
63714;SDS011;49858;48.956;9.076;2023-12-20T06:59:40;10.25;;;5.93;;
63714;SDS011;49858;48.956;9.076;2023-12-20T07:02:08;9.68;;;6.30;;
63714;SDS011;49858;48.956;9.076;2023-12-20T07:04:40;11.02;;;6.22;;
63714;SDS011;49858;48.956;9.076;2023-12-20T07:07:09;5.78;;;3.60;;
63714;SDS011;49858;48.956;9.076;2023-12-20T07:09:37;9.50;;;5.82;;
63714;SDS011;49858;48.956;9.076;2023-12-20T07:12:05;13.70;;;6.95;;
63714;SDS011;49858;48.956;9.076;2023-12-20T07:14:34;10.38;;;4.47;;
63714;SDS011;49858;48.956;9.076;2023-12-20T07:17:02;8.52;;;5.25;;
63714;SDS011;49858;48.956;9.076;2023-12-20T07:19:30;7.47;;;4.93;;
63714;SDS011;49858;48.956;9.076;2023-12-20T07:21:59;9.55;;;5.70;;
63714;SDS011;49858;48.956;9.076;2023-12-20T07:24:27;7.70;;;5.28;;
63714;SDS011;49858;48.956;9.076;2023-12-20T07:26:54;11.68;;;7.25;;
63714;SDS011;49858;48.956;9.076;2023-12-20T07:29:22;9.20;;;5.78;;
63714;SDS011;49858;48.956;9.076;2023-12-20T07:31:52;10.27;;;6.47;;
63714;SDS011;49858;48.956;9.076;2023-12-20T07:34:20;7.70;;;4.22;;
63714;SDS011;49858;48.956;9.076;2023-12-20T07:36:50;5.38;;;4.22;;
63714;SDS011;49858;48.956;9.076;2023-12-20T07:39:20;9.35;;;5.07;;
63714;SDS011;49858;48.956;9.076;2023-12-20T07:41:47;11.30;;;6.05;;
63714;SDS011;49858;48.956;9.076;2023-12-20T07:44:15;9.05;;;6.07;;
63714;SDS011;49858;48.956;9.076;2023-12-20T07:46:43;12.13;;;7.28;;
63714;SDS011;49858;48.956;9.076;2023-12-20T07:49:13;8.20;;;4.20;;
63714;SDS011;49858;48.956;9.076;2023-12-20T07:51:41;9.68;;;7.32;;
63714;SDS011;49858;48.956;9.076;2023-12-20T07:54:09;8.35;;;5.60;;
63714;SDS011;49858;48.956;9.076;2023-12-20T07:56:37;11.18;;;4.97;;
63714;SDS011;49858;48.956;9.076;2023-12-20T07:59:08;11.75;;;6.80;;
63714;SDS011;49858;48.956;9.076;2023-12-20T08:01:51;10.65;;;5.75;;
63714;SDS011;49858;48.956;9.076;2023-12-20T08:04:20;10.15;;;7.05;;
63714;SDS011;49858;48.956;9.076;2023-12-20T08:06:48;6.65;;;4.70;;
63714;SDS011;49858;48.956;9.076;2023-12-20T08:09:20;6.97;;;3.15;;
63714;SDS011;49858;48.956;9.076;2023-12-20T08:11:49;6.13;;;4.63;;
63714;SDS011;49858;48.956;9.076;2023-12-20T08:14:17;10.73;;;7.05;;
63714;SDS011;49858;48.956;9.076;2023-12-20T08:16:45;8.50;;;4.93;;
63714;SDS011;49858;48.956;9.076;2023-12-20T08:19:12;6.13;;;4.07;;
63714;SDS011;49858;48.956;9.076;2023-12-20T08:21:42;7.05;;;4.38;;
63714;SDS011;49858;48.956;9.076;2023-12-20T08:24:10;4.85;;;2.85;;
63714;SDS011;49858;48.956;9.076;2023-12-20T08:26:38;4.78;;;3.40;;
63714;SDS011;49858;48.956;9.076;2023-12-20T08:29:06;4.22;;;2.47;;
63714;SDS011;49858;48.956;9.076;2023-12-20T08:31:34;4.68;;;2.10;;
63714;SDS011;49858;48.956;9.076;2023-12-20T08:34:02;4.88;;;2.63;;
63714;SDS011;49858;48.956;9.076;2023-12-20T08:36:34;3.88;;;2.60;;
63714;SDS011;49858;48.956;9.076;2023-12-20T08:39:03;9.32;;;3.88;;
63714;SDS011;49858;48.956;9.076;2023-12-20T08:41:34;4.53;;;3.42;;
63714;SDS011;49858;48.956;9.076;2023-12-20T08:44:04;5.05;;;4.05;;
63714;SDS011;49858;48.956;9.076;2023-12-20T08:46:32;7.00;;;4.20;;
63714;SDS011;49858;48.956;9.076;2023-12-20T08:49:00;7.53;;;4.47;;
63714;SDS011;49858;48.956;9.076;2023-12-20T08:51:28;10.18;;;4.90;;
63714;SDS011;49858;48.956;9.076;2023-12-20T08:53:56;7.60;;;4.38;;
63714;SDS011;49858;48.956;9.076;2023-12-20T08:56:25;5.20;;;3.67;;
63714;SDS011;49858;48.956;9.076;2023-12-20T08:58:53;4.28;;;2.80;;
63714;SDS011;49858;48.956;9.076;2023-12-20T09:01:24;6.88;;;4.47;;
63714;SDS011;49858;48.956;9.076;2023-12-20T09:03:53;6.82;;;4.35;;
63714;SDS011;49858;48.956;9.076;2023-12-20T09:06:25;6.35;;;3.85;;
63714;SDS011;49858;48.956;9.076;2023-12-20T09:08:53;6.43;;;4.90;;
63714;SDS011;49858;48.956;9.076;2023-12-20T09:11:21;8.38;;;4.28;;
63714;SDS011;49858;48.956;9.076;2023-12-20T09:13:50;9.18;;;5.32;;
63714;SDS011;49858;48.956;9.076;2023-12-20T09:16:18;8.82;;;5.97;;
63714;SDS011;49858;48.956;9.076;2023-12-20T09:18:49;8.48;;;5.28;;
63714;SDS011;49858;48.956;9.076;2023-12-20T09:21:18;7.65;;;3.63;;
63714;SDS011;49858;48.956;9.076;2023-12-20T09:23:46;14.68;;;3.10;;
63714;SDS011;49858;48.956;9.076;2023-12-20T09:26:14;4.50;;;2.92;;
63714;SDS011;49858;48.956;9.076;2023-12-20T09:28:42;6.65;;;3.40;;
63714;SDS011;49858;48.956;9.076;2023-12-20T09:31:11;5.75;;;3.25;;
63714;SDS011;49858;48.956;9.076;2023-12-20T09:33:39;3.70;;;2.00;;
63714;SDS011;49858;48.956;9.076;2023-12-20T09:36:07;7.78;;;3.42;;
63714;SDS011;49858;48.956;9.076;2023-12-20T09:38:35;3.95;;;2.22;;
63714;SDS011;49858;48.956;9.076;2023-12-20T09:41:03;4.25;;;2.05;;
63714;SDS011;49858;48.956;9.076;2023-12-20T09:43:32;4.85;;;2.55;;
63714;SDS011;49858;48.956;9.076;2023-12-20T09:46:05;2.55;;;2.15;;
63714;SDS011;49858;48.956;9.076;2023-12-20T09:48:36;4.47;;;2.40;;
63714;SDS011;49858;48.956;9.076;2023-12-20T09:51:04;4.68;;;2.58;;
63714;SDS011;49858;48.956;9.076;2023-12-20T09:53:32;4.07;;;2.03;;
63714;SDS011;49858;48.956;9.076;2023-12-20T09:56:04;5.10;;;3.28;;
63714;SDS011;49858;48.956;9.076;2023-12-20T09:58:35;2.97;;;2.22;;
63714;SDS011;49858;48.956;9.076;2023-12-20T10:01:04;2.20;;;1.60;;
63714;SDS011;49858;48.956;9.076;2023-12-20T10:03:38;8.00;;;2.85;;
63714;SDS011;49858;48.956;9.076;2023-12-20T10:06:08;3.92;;;2.13;;
63714;SDS011;49858;48.956;9.076;2023-12-20T10:08:38;1.67;;;1.17;;
63714;SDS011;49858;48.956;9.076;2023-12-20T10:11:06;4.20;;;2.05;;
63714;SDS011;49858;48.956;9.076;2023-12-20T10:13:34;4.25;;;2.15;;
63714;SDS011;49858;48.956;9.076;2023-12-20T10:16:06;6.20;;;2.60;;
63714;SDS011;49858;48.956;9.076;2023-12-20T10:18:34;3.10;;;1.40;;
63714;SDS011;49858;48.956;9.076;2023-12-20T10:21:07;3.88;;;1.80;;
63714;SDS011;49858;48.956;9.076;2023-12-20T10:23:36;4.30;;;1.90;;
63714;SDS011;49858;48.956;9.076;2023-12-20T10:26:06;4.70;;;1.80;;
63714;SDS011;49858;48.956;9.076;2023-12-20T10:28:34;5.15;;;2.50;;
63714;SDS011;49858;48.956;9.076;2023-12-20T10:31:03;5.85;;;2.25;;
63714;SDS011;49858;48.956;9.076;2023-12-20T10:33:32;3.83;;;2.58;;
63714;SDS011;49858;48.956;9.076;2023-12-20T10:36:01;7.22;;;2.38;;
63714;SDS011;49858;48.956;9.076;2023-12-20T10:38:31;4.22;;;1.58;;
63714;SDS011;49858;48.956;9.076;2023-12-20T10:40:59;7.63;;;2.13;;
63714;SDS011;49858;48.956;9.076;2023-12-20T10:43:31;5.90;;;2.38;;
63714;SDS011;49858;48.956;9.076;2023-12-20T10:46:01;4.07;;;2.08;;
63714;SDS011;49858;48.956;9.076;2023-12-20T10:48:31;5.00;;;2.03;;
63714;SDS011;49858;48.956;9.076;2023-12-20T10:51:00;4.57;;;2.05;;
63714;SDS011;49858;48.956;9.076;2023-12-20T10:53:30;5.07;;;1.27;;
63714;SDS011;49858;48.956;9.076;2023-12-20T10:55:59;3.70;;;1.48;;
63714;SDS011;49858;48.956;9.076;2023-12-20T10:58:30;2.10;;;1.23;;
63714;SDS011;49858;48.956;9.076;2023-12-20T11:01:01;5.50;;;1.58;;
63714;SDS011;49858;48.956;9.076;2023-12-20T11:03:30;1.67;;;1.20;;
63714;SDS011;49858;48.956;9.076;2023-12-20T11:06:03;6.38;;;1.88;;
63714;SDS011;49858;48.956;9.076;2023-12-20T11:08:42;6.05;;;2.10;;
63714;SDS011;49858;48.956;9.076;2023-12-20T11:11:14;5.75;;;1.90;;
63714;SDS011;49858;48.956;9.076;2023-12-20T11:13:54;5.85;;;2.10;;
63714;SDS011;49858;48.956;9.076;2023-12-20T11:16:26;1.30;;;1.08;;
63714;SDS011;49858;48.956;9.076;2023-12-20T11:19:07;8.85;;;2.55;;
63714;SDS011;49858;48.956;9.076;2023-12-20T11:21:35;3.28;;;0.98;;
63714;SDS011;49858;48.956;9.076;2023-12-20T11:24:04;9.88;;;2.33;;
63714;SDS011;49858;48.956;9.076;2023-12-20T11:26:33;6.30;;;1.65;;
63714;SDS011;49858;48.956;9.076;2023-12-20T11:31:57;4.47;;;1.67;;
63714;SDS011;49858;48.956;9.076;2023-12-20T11:34:26;7.45;;;1.58;;
63714;SDS011;49858;48.956;9.076;2023-12-20T11:36:59;2.45;;;1.33;;
63714;SDS011;49858;48.956;9.076;2023-12-20T11:39:29;3.00;;;1.75;;
63714;SDS011;49858;48.956;9.076;2023-12-20T11:42:03;5.45;;;2.08;;
63714;SDS011;49858;48.956;9.076;2023-12-20T11:44:32;4.47;;;1.45;;
63714;SDS011;49858;48.956;9.076;2023-12-20T11:47:02;5.75;;;2.33;;
63714;SDS011;49858;48.956;9.076;2023-12-20T11:49:31;6.63;;;2.70;;
63714;SDS011;49858;48.956;9.076;2023-12-20T11:51:59;6.18;;;2.40;;
63714;SDS011;49858;48.956;9.076;2023-12-20T11:54:27;4.40;;;1.55;;
63714;SDS011;49858;48.956;9.076;2023-12-20T11:56:56;4.32;;;2.22;;
63714;SDS011;49858;48.956;9.076;2023-12-20T11:59:24;4.65;;;2.15;;
63714;SDS011;49858;48.956;9.076;2023-12-20T12:01:52;4.97;;;2.35;;
63714;SDS011;49858;48.956;9.076;2023-12-20T12:04:23;8.52;;;3.30;;
63714;SDS011;49858;48.956;9.076;2023-12-20T12:06:51;7.00;;;3.15;;
63714;SDS011;49858;48.956;9.076;2023-12-20T12:09:19;4.20;;;1.80;;
63714;SDS011;49858;48.956;9.076;2023-12-20T12:11:47;4.32;;;1.70;;
63714;SDS011;49858;48.956;9.076;2023-12-20T12:14:16;8.43;;;2.40;;
63714;SDS011;49858;48.956;9.076;2023-12-20T12:16:45;9.10;;;3.00;;
63714;SDS011;49858;48.956;9.076;2023-12-20T12:19:20;9.00;;;2.72;;
63714;SDS011;49858;48.956;9.076;2023-12-20T12:21:48;7.43;;;2.30;;
63714;SDS011;49858;48.956;9.076;2023-12-20T12:24:19;10.38;;;2.97;;
63714;SDS011;49858;48.956;9.076;2023-12-20T12:26:51;6.63;;;2.55;;
63714;SDS011;49858;48.956;9.076;2023-12-20T12:29:20;8.50;;;3.50;;
63714;SDS011;49858;48.956;9.076;2023-12-20T12:31:53;2.72;;;1.88;;
63714;SDS011;49858;48.956;9.076;2023-12-20T12:34:21;9.57;;;3.15;;
63714;SDS011;49858;48.956;9.076;2023-12-20T12:36:49;4.55;;;1.60;;
63714;SDS011;49858;48.956;9.076;2023-12-20T12:39:17;5.18;;;2.60;;
63714;SDS011;49858;48.956;9.076;2023-12-20T12:41:46;4.70;;;2.65;;
63714;SDS011;49858;48.956;9.076;2023-12-20T12:44:14;8.43;;;2.83;;
63714;SDS011;49858;48.956;9.076;2023-12-20T12:46:45;9.85;;;2.80;;
63714;SDS011;49858;48.956;9.076;2023-12-20T12:49:16;6.43;;;1.92;;
63714;SDS011;49858;48.956;9.076;2023-12-20T12:51:44;7.18;;;2.88;;
63714;SDS011;49858;48.956;9.076;2023-12-20T12:54:12;6.97;;;2.95;;
63714;SDS011;49858;48.956;9.076;2023-12-20T12:56:42;7.40;;;2.30;;
63714;SDS011;49858;48.956;9.076;2023-12-20T12:59:11;16.00;;;2.70;;
63714;SDS011;49858;48.956;9.076;2023-12-20T13:01:39;6.85;;;2.58;;
63714;SDS011;49858;48.956;9.076;2023-12-20T13:04:08;7.78;;;2.70;;
63714;SDS011;49858;48.956;9.076;2023-12-20T13:06:38;8.45;;;1.40;;
63714;SDS011;49858;48.956;9.076;2023-12-20T13:09:07;7.05;;;2.38;;
63714;SDS011;49858;48.956;9.076;2023-12-20T13:11:36;3.00;;;1.55;;
63714;SDS011;49858;48.956;9.076;2023-12-20T13:14:04;4.95;;;1.92;;
63714;SDS011;49858;48.956;9.076;2023-12-20T13:16:32;5.30;;;2.60;;
63714;SDS011;49858;48.956;9.076;2023-12-20T13:19:04;13.27;;;2.85;;
63714;SDS011;49858;48.956;9.076;2023-12-20T13:21:34;4.50;;;1.83;;
63714;SDS011;49858;48.956;9.076;2023-12-20T13:24:02;6.75;;;2.58;;
63714;SDS011;49858;48.956;9.076;2023-12-20T13:26:30;6.70;;;2.22;;
63714;SDS011;49858;48.956;9.076;2023-12-20T13:29:01;6.78;;;2.30;;
63714;SDS011;49858;48.956;9.076;2023-12-20T13:31:29;8.98;;;2.00;;
63714;SDS011;49858;48.956;9.076;2023-12-20T13:33:58;3.50;;;1.75;;
63714;SDS011;49858;48.956;9.076;2023-12-20T13:36:27;5.88;;;2.65;;
63714;SDS011;49858;48.956;9.076;2023-12-20T13:38:56;7.03;;;2.47;;
63714;SDS011;49858;48.956;9.076;2023-12-20T13:41:25;13.35;;;2.03;;
63714;SDS011;49858;48.956;9.076;2023-12-20T13:43:52;5.50;;;2.33;;
63714;SDS011;49858;48.956;9.076;2023-12-20T13:46:20;10.40;;;1.92;;
63714;SDS011;49858;48.956;9.076;2023-12-20T13:48:49;6.93;;;2.42;;
63714;SDS011;49858;48.956;9.076;2023-12-20T13:51:17;6.43;;;2.50;;
63714;SDS011;49858;48.956;9.076;2023-12-20T13:53:47;3.88;;;1.95;;
63714;SDS011;49858;48.956;9.076;2023-12-20T13:56:17;3.92;;;1.63;;
63714;SDS011;49858;48.956;9.076;2023-12-20T13:58:46;8.15;;;2.60;;
63714;SDS011;49858;48.956;9.076;2023-12-20T14:01:15;10.25;;;2.08;;
63714;SDS011;49858;48.956;9.076;2023-12-20T14:03:43;6.97;;;2.60;;
63714;SDS011;49858;48.956;9.076;2023-12-20T14:06:11;4.72;;;2.45;;
63714;SDS011;49858;48.956;9.076;2023-12-20T14:08:41;7.65;;;2.80;;
63714;SDS011;49858;48.956;9.076;2023-12-20T14:11:09;9.30;;;2.75;;
63714;SDS011;49858;48.956;9.076;2023-12-20T14:13:39;6.60;;;2.15;;
63714;SDS011;49858;48.956;9.076;2023-12-20T14:16:07;3.53;;;2.28;;
63714;SDS011;49858;48.956;9.076;2023-12-20T14:18:37;6.85;;;3.25;;
63714;SDS011;49858;48.956;9.076;2023-12-20T14:21:06;10.95;;;3.22;;
63714;SDS011;49858;48.956;9.076;2023-12-20T14:23:34;10.25;;;3.15;;
63714;SDS011;49858;48.956;9.076;2023-12-20T14:26:02;6.32;;;2.95;;
63714;SDS011;49858;48.956;9.076;2023-12-20T14:28:30;10.73;;;3.25;;
63714;SDS011;49858;48.956;9.076;2023-12-20T14:31:00;6.63;;;3.05;;
63714;SDS011;49858;48.956;9.076;2023-12-20T14:33:28;7.90;;;2.90;;
63714;SDS011;49858;48.956;9.076;2023-12-20T14:35:56;8.32;;;3.22;;
63714;SDS011;49858;48.956;9.076;2023-12-20T14:38:24;14.38;;;3.10;;
63714;SDS011;49858;48.956;9.076;2023-12-20T14:40:52;8.23;;;2.85;;
63714;SDS011;49858;48.956;9.076;2023-12-20T14:43:21;9.73;;;2.40;;
63714;SDS011;49858;48.956;9.076;2023-12-20T14:45:49;8.05;;;2.53;;
63714;SDS011;49858;48.956;9.076;2023-12-20T14:48:19;7.15;;;3.03;;
63714;SDS011;49858;48.956;9.076;2023-12-20T14:50:48;5.15;;;2.20;;
63714;SDS011;49858;48.956;9.076;2023-12-20T14:53:16;9.70;;;2.85;;
63714;SDS011;49858;48.956;9.076;2023-12-20T14:55:48;6.35;;;3.17;;
63714;SDS011;49858;48.956;9.076;2023-12-20T14:58:17;8.48;;;2.90;;